createdAt,value
2019-02-10T00:02:53.731Z," 9.10"
2019-02-10T00:07:49.677Z," 9.08"
2019-02-10T00:12:44.944Z," 9.06"
2019-02-10T00:17:40.699Z," 9.10"
2019-02-10T00:22:36.362Z," 9.18"
2019-02-10T00:27:32.356Z," 9.14"
2019-02-10T00:32:27.937Z," 9.08"
2019-02-10T00:37:23.672Z," 9.00"
2019-02-10T00:42:19.437Z," 9.06"
2019-02-10T00:47:15.130Z," 9.03"
2019-02-10T00:52:11.880Z," 9.02"
2019-02-10T00:57:07.305Z," 8.92"
2019-02-10T01:02:03.061Z," 8.97"
2019-02-10T01:06:58.835Z," 9.00"
2019-02-10T01:11:54.442Z," 8.91"
2019-02-10T01:16:51.577Z," 9.00"
2019-02-10T01:21:48.186Z," 8.94"
2019-02-10T01:26:44.548Z," 8.91"
2019-02-10T01:31:40.951Z," 8.85"
2019-02-10T01:36:37.424Z," 8.79"
2019-02-10T01:41:33.549Z," 8.82"
2019-02-10T01:46:29.397Z," 8.78"
2019-02-10T01:51:25.856Z," 8.76"
2019-02-10T01:56:21.436Z," 8.73"
2019-02-10T02:01:17.333Z," 8.74"
2019-02-10T02:06:13.479Z," 8.69"
2019-02-10T02:11:09.031Z," 8.74"
2019-02-10T02:16:04.879Z," 8.76"
2019-02-10T02:21:00.731Z," 8.71"
2019-02-10T02:25:56.611Z," 8.73"
2019-02-10T02:30:52.330Z," 8.81"
2019-02-10T02:35:48.799Z," 8.81"
2019-02-10T02:40:45.257Z," 8.79"
2019-02-10T02:45:40.953Z," 8.81"
2019-02-10T02:50:36.772Z," 8.79"
2019-02-10T02:55:32.968Z," 8.81"
2019-02-10T03:00:28.615Z," 8.70"
2019-02-10T03:05:24.373Z," 8.66"
2019-02-10T03:10:21.024Z," 8.56"
2019-02-10T03:15:16.109Z," 8.42"
2019-02-10T03:20:12.019Z," 8.36"
2019-02-10T03:25:07.504Z," 8.28"
2019-02-10T03:30:03.018Z," 8.19"
2019-02-10T03:34:58.972Z," 8.23"
2019-02-10T03:39:55.239Z," 8.13"
2019-02-10T03:44:51.261Z," 8.13"
2019-02-10T03:49:47.958Z," 8.06"
2019-02-10T03:54:43.126Z," 8.05"
2019-02-10T03:59:39.074Z," 8.00"
2019-02-10T04:04:35.269Z," 8.00"
2019-02-10T04:09:30.868Z," 7.97"
2019-02-10T04:14:26.634Z," 7.85"
2019-02-10T04:19:22.973Z," 7.87"
2019-02-10T04:24:18.663Z," 7.87"
2019-02-10T04:29:14.590Z," 7.75"
2019-02-10T04:34:10.263Z," 7.56"
2019-02-10T04:39:06.942Z," 7.57"
2019-02-10T04:44:03.258Z," 7.57"
2019-02-10T04:48:58.887Z," 7.53"
2019-02-10T04:53:54.559Z," 7.53"
2019-02-10T04:58:51.019Z," 7.43"
2019-02-10T05:03:46.747Z," 7.31"
2019-02-10T05:08:42.389Z," 7.36"
2019-02-10T05:13:39.130Z," 7.40"
2019-02-10T05:18:34.322Z," 7.43"
2019-02-10T05:23:29.907Z," 7.36"
2019-02-10T05:28:25.535Z," 7.36"
2019-02-10T05:33:21.266Z," 7.36"
2019-02-10T05:38:17.716Z," 7.28"
2019-02-10T05:43:13.359Z," 7.17"
2019-02-10T05:48:09.709Z," 7.32"
2019-02-10T05:53:05.404Z," 7.18"
2019-02-10T05:58:01.698Z," 7.28"
2019-02-10T06:02:58.260Z," 7.20"
2019-02-10T06:07:53.768Z," 7.23"
2019-02-10T06:12:49.834Z," 7.13"
2019-02-10T06:17:45.283Z," 7.15"
2019-02-10T06:22:40.940Z," 7.10"
2019-02-10T06:27:36.668Z," 7.07"
2019-02-10T06:32:32.462Z," 7.07"
2019-02-10T06:37:28.591Z," 7.15"
2019-02-10T06:42:24.312Z," 7.17"
2019-02-10T06:47:20.727Z," 7.15"
2019-02-10T06:52:17.225Z," 7.21"
2019-02-10T06:57:13.103Z," 7.05"
2019-02-10T07:02:08.946Z," 7.24"
2019-02-10T07:07:04.474Z," 7.32"
2019-02-10T07:12:00.350Z," 7.43"
2019-02-10T07:16:56.270Z," 7.47"
2019-02-10T07:21:52.031Z," 7.66"
2019-02-10T07:26:48.043Z," 7.83"
2019-02-10T07:31:43.901Z," 7.82"
2019-02-10T07:36:39.796Z," 7.88"
2019-02-10T07:41:35.537Z," 7.90"
2019-02-10T07:46:31.243Z," 8.01"
2019-02-10T07:51:27.819Z," 8.23"
2019-02-10T07:56:23.723Z," 8.19"
2019-02-10T08:01:19.632Z," 8.26"
2019-02-10T08:06:15.478Z," 8.36"
2019-02-10T08:11:10.985Z," 8.36"
2019-02-10T08:16:06.770Z," 8.42"
2019-02-10T08:21:02.645Z," 8.45"
2019-02-10T08:25:58.418Z," 8.63"
2019-02-10T08:30:55.213Z," 8.60"
2019-02-10T08:35:50.777Z," 8.78"
2019-02-10T08:40:46.615Z," 8.78"
2019-02-10T08:45:42.470Z," 8.81"
2019-02-10T08:50:38.118Z," 8.85"
2019-02-10T08:55:34.046Z," 9.00"
2019-02-10T09:00:29.867Z," 9.10"
2019-02-10T09:05:26.203Z," 9.08"
2019-02-10T09:10:23.170Z," 9.23"
2019-02-10T09:15:18.829Z," 9.18"
2019-02-10T09:20:14.490Z," 9.19"
2019-02-10T09:25:10.517Z," 9.22"
2019-02-10T09:30:06.371Z," 9.41"
2019-02-10T09:35:02.088Z," 9.47"
2019-02-10T09:39:57.947Z," 9.46"
2019-02-10T09:44:53.784Z," 9.48"
2019-02-10T09:49:50.729Z," 9.51"
2019-02-10T09:54:46.300Z," 9.56"
2019-02-10T09:59:41.963Z," 9.47"
2019-02-10T10:04:37.758Z," 9.51"
2019-02-10T10:09:33.628Z," 9.55"
2019-02-10T10:14:30.851Z," 9.55"
2019-02-10T10:19:26.924Z," 9.64"
2019-02-10T10:24:22.712Z," 9.64"
2019-02-10T10:29:18.578Z," 9.74"
2019-02-10T10:34:15.292Z," 9.76"
2019-02-10T10:39:10.897Z," 9.84"
2019-02-10T10:44:06.681Z," 9.82"
2019-02-10T10:49:02.535Z," 9.84"
2019-02-10T10:53:58.573Z,10.04
2019-02-10T10:58:54.456Z,10.05
2019-02-10T11:03:50.315Z,10.13
2019-02-10T11:08:46.234Z,10.12
2019-02-10T11:13:42.098Z,10.01
2019-02-10T11:18:37.805Z," 9.97"
2019-02-10T11:23:33.692Z," 9.92"
2019-02-10T11:28:29.549Z," 9.87"
2019-02-10T11:33:26.499Z," 9.79"
2019-02-10T11:38:22.608Z," 9.73"
2019-02-10T11:43:18.376Z," 9.86"
2019-02-10T11:48:14.056Z," 9.82"
2019-02-10T11:53:10.877Z," 9.91"
2019-02-10T11:58:07.002Z,10.05
2019-02-10T12:03:03.089Z,10.01
2019-02-10T12:07:58.564Z,10.04
2019-02-10T12:12:56.311Z,10.02
2019-02-10T12:17:51.898Z,10.04
2019-02-10T12:22:50.158Z,10.12
2019-02-10T12:27:45.418Z,10.07
2019-02-10T12:32:42.362Z,10.09
2019-02-10T12:37:38.759Z,10.05
2019-02-10T12:42:34.238Z,10.05
2019-02-10T12:47:31.314Z,10.10
2019-02-10T12:52:27.861Z,10.04
2019-02-10T12:57:23.584Z,10.12
2019-02-10T13:02:19.482Z,10.15
2019-02-10T13:07:15.047Z,10.05
2019-02-10T13:12:12.249Z,10.02
2019-02-10T13:17:07.614Z," 9.92"
2019-02-10T13:22:03.424Z," 9.86"
2019-02-10T13:26:59.180Z," 9.83"
2019-02-10T13:31:55.974Z," 9.77"
2019-02-10T13:36:51.524Z," 9.61"
2019-02-10T13:41:47.041Z," 9.59"
2019-02-10T13:46:42.799Z," 9.58"
2019-02-10T13:51:38.837Z," 9.59"
2019-02-10T13:56:36.626Z," 9.58"
2019-02-10T14:01:31.879Z," 9.48"
2019-02-10T14:06:28.261Z," 9.54"
2019-02-10T14:11:23.897Z," 9.51"
2019-02-10T14:16:20.723Z," 9.54"
2019-02-10T14:21:17.129Z," 9.40"
2019-02-10T14:26:13.763Z," 9.54"
2019-02-10T14:31:09.743Z," 9.59"
2019-02-10T14:36:05.457Z," 9.48"
2019-02-10T14:41:01.682Z," 9.54"
2019-02-10T14:45:58.482Z," 9.55"
2019-02-10T14:50:53.820Z," 9.58"
2019-02-10T14:55:49.854Z," 9.43"
2019-02-10T15:00:45.889Z," 9.50"
2019-02-10T15:05:41.697Z," 9.51"
2019-02-10T15:10:42.032Z," 9.34"
2019-02-10T15:15:36.722Z," 9.37"
2019-02-10T15:20:32.836Z," 9.31"
2019-02-10T15:25:28.451Z," 9.36"
2019-02-10T15:30:25.077Z," 9.21"
2019-02-10T15:35:20.557Z," 9.31"
2019-02-10T15:40:16.033Z," 9.16"
2019-02-10T15:45:13.120Z," 9.03"
2019-02-10T15:50:08.627Z," 9.03"
2019-02-10T15:55:04.336Z," 9.00"
2019-02-10T16:00:00.182Z," 8.99"
2019-02-10T16:11:26.581Z," 8.82"
2019-02-10T16:16:21.028Z," 8.85"
2019-02-10T16:21:16.768Z," 8.69"
2019-02-10T16:26:12.410Z," 8.61"
2019-02-10T16:31:08.042Z," 8.58"
2019-02-10T16:36:03.694Z," 8.52"
2019-02-10T16:41:06.130Z," 8.24"
2019-02-10T16:45:59.384Z," 8.12"
2019-02-10T16:50:54.847Z," 7.97"
2019-02-10T16:55:50.484Z," 8.08"
2019-02-10T17:00:46.146Z," 8.05"
2019-02-10T17:05:41.663Z," 7.95"
2019-02-10T17:10:38.648Z," 7.91"
2019-02-10T17:15:33.995Z," 8.01"
2019-02-10T17:20:29.652Z," 7.87"
2019-02-10T17:25:25.172Z," 7.83"
2019-02-10T17:30:21.684Z," 7.79"
2019-02-10T17:35:18.612Z," 7.79"
2019-02-10T17:40:14.811Z," 7.70"
2019-02-10T17:45:10.153Z," 7.66"
2019-02-10T17:50:06.248Z," 7.43"
2019-02-10T17:55:01.844Z," 7.38"
2019-02-10T17:59:59.187Z," 7.50"
2019-02-10T18:04:56.286Z," 7.31"
2019-02-10T18:09:51.501Z," 7.18"
2019-02-10T18:14:47.756Z," 7.11"
2019-02-10T18:19:44.267Z," 7.11"
2019-02-10T18:24:39.904Z," 6.96"
2019-02-10T18:29:36.694Z," 6.85"
2019-02-10T18:34:32.949Z," 6.72"
2019-02-10T18:39:29.243Z," 6.54"
2019-02-10T18:44:24.921Z," 6.36"
2019-02-10T18:49:20.482Z," 6.16"
2019-02-10T18:54:16.745Z," 6.17"
2019-02-10T18:59:13.381Z," 6.07"
2019-02-10T19:04:08.749Z," 5.86"
2019-02-10T19:09:05.292Z," 5.82"
2019-02-10T19:14:01.495Z," 5.83"
2019-02-10T19:18:56.791Z," 5.73"
2019-02-10T19:23:53.318Z," 5.84"
2019-02-10T19:28:49.615Z," 5.75"
2019-02-10T19:33:45.986Z," 5.72"
2019-02-10T19:38:41.383Z," 5.64"
2019-02-10T19:43:37.055Z," 5.73"
2019-02-10T19:48:33.118Z," 5.56"
2019-02-10T19:53:29.292Z," 5.61"
2019-02-10T19:58:24.973Z," 5.64"
2019-02-10T20:03:20.331Z," 5.64"
2019-02-10T20:08:16.373Z," 5.59"
2019-02-10T20:13:11.723Z," 5.61"
2019-02-10T20:18:08.392Z," 5.61"
2019-02-10T20:23:04.823Z," 5.72"
2019-02-10T20:28:01.089Z," 5.71"
2019-02-10T20:32:57.412Z," 5.72"
2019-02-10T20:37:52.631Z," 5.84"
2019-02-10T20:42:48.852Z," 5.84"
2019-02-10T20:47:44.593Z," 5.80"
2019-02-10T20:52:46.172Z," 5.73"
2019-02-10T20:57:39.646Z," 5.65"
2019-02-10T21:02:36.305Z," 5.69"
2019-02-10T21:07:32.659Z," 5.56"
2019-02-10T21:12:27.984Z," 5.59"
2019-02-10T21:17:24.562Z," 5.44"
2019-02-10T21:22:19.885Z," 5.43"
2019-02-10T21:27:16.437Z," 5.26"
2019-02-10T21:32:12.895Z," 5.18"
2019-02-10T21:37:09.093Z," 5.08"
2019-02-10T21:42:05.247Z," 5.00"
2019-02-10T21:47:00.986Z," 5.08"
2019-02-10T21:51:56.716Z," 4.97"
2019-02-10T21:56:53.815Z," 5.05"
2019-02-10T22:01:49.113Z," 5.12"
2019-02-10T22:06:44.970Z," 5.04"
2019-02-10T22:11:40.239Z," 5.00"
2019-02-10T22:16:36.073Z," 5.05"
2019-02-10T22:21:31.467Z," 4.93"
2019-02-10T22:26:27.145Z," 4.94"
2019-02-10T22:31:22.999Z," 5.07"
2019-02-10T22:36:18.440Z," 5.04"
2019-02-10T22:41:14.340Z," 4.96"
2019-02-10T22:46:09.667Z," 5.00"
2019-02-10T22:51:05.398Z," 5.12"
2019-02-10T22:56:00.955Z," 5.12"
2019-02-10T23:00:56.812Z," 5.29"
2019-02-10T23:05:52.525Z," 5.29"
2019-02-10T23:10:48.301Z," 5.35"
2019-02-10T23:15:44.712Z," 5.48"
2019-02-10T23:20:40.139Z," 5.47"
2019-02-10T23:25:35.954Z," 5.61"
2019-02-10T23:30:32.665Z," 5.64"
2019-02-10T23:35:28.321Z," 5.66"
2019-02-10T23:40:23.941Z," 5.84"
2019-02-10T23:45:19.622Z," 5.73"
2019-02-10T23:50:15.133Z," 5.79"
2019-02-10T23:55:11.850Z," 5.89"
